sensor_id;sensor_type;location;lat;lon;timestamp;P1;durP1;ratioP1;P2;durP2;ratioP2
12248;SDS011;6187;50.778;6.142;2023-06-14T00:00:05;3.93;;;3.57;;
12248;SDS011;6187;50.778;6.142;2023-06-14T00:02:35;4.00;;;3.60;;
12248;SDS011;6187;50.778;6.142;2023-06-14T00:05:04;5.00;;;4.33;;
12248;SDS011;6187;50.778;6.142;2023-06-14T00:07:33;4.10;;;3.70;;
12248;SDS011;6187;50.778;6.142;2023-06-14T00:10:02;4.37;;;3.97;;
12248;SDS011;6187;50.778;6.142;2023-06-14T00:12:31;5.27;;;3.97;;
12248;SDS011;6187;50.778;6.142;2023-06-14T00:15:00;4.03;;;3.63;;
12248;SDS011;6187;50.778;6.142;2023-06-14T00:17:29;4.03;;;3.70;;
12248;SDS011;6187;50.778;6.142;2023-06-14T00:19:59;4.20;;;3.80;;
12248;SDS011;6187;50.778;6.142;2023-06-14T00:22:30;5.87;;;4.10;;
12248;SDS011;6187;50.778;6.142;2023-06-14T00:24:59;4.37;;;3.97;;
12248;SDS011;6187;50.778;6.142;2023-06-14T00:27:48;4.47;;;3.90;;
12248;SDS011;6187;50.778;6.142;2023-06-14T00:30:16;4.10;;;3.70;;
12248;SDS011;6187;50.778;6.142;2023-06-14T00:32:45;4.40;;;4.00;;
12248;SDS011;6187;50.778;6.142;2023-06-14T00:35:15;4.20;;;3.80;;
12248;SDS011;6187;50.778;6.142;2023-06-14T00:37:44;4.23;;;3.83;;
12248;SDS011;6187;50.778;6.142;2023-06-14T00:40:12;4.50;;;4.07;;
12248;SDS011;6187;50.778;6.142;2023-06-14T00:42:41;4.77;;;4.27;;
12248;SDS011;6187;50.778;6.142;2023-06-14T00:45:10;4.57;;;4.10;;
12248;SDS011;6187;50.778;6.142;2023-06-14T00:47:39;3.80;;;3.47;;
12248;SDS011;6187;50.778;6.142;2023-06-14T00:50:09;4.47;;;3.80;;
12248;SDS011;6187;50.778;6.142;2023-06-14T00:52:39;4.20;;;3.80;;
12248;SDS011;6187;50.778;6.142;2023-06-14T00:55:08;4.77;;;4.00;;
12248;SDS011;6187;50.778;6.142;2023-06-14T00:57:36;4.53;;;3.80;;
12248;SDS011;6187;50.778;6.142;2023-06-14T01:00:07;4.30;;;3.90;;
12248;SDS011;6187;50.778;6.142;2023-06-14T01:02:36;4.37;;;3.97;;
12248;SDS011;6187;50.778;6.142;2023-06-14T01:05:05;5.10;;;4.60;;
12248;SDS011;6187;50.778;6.142;2023-06-14T01:10:31;4.30;;;3.93;;
12248;SDS011;6187;50.778;6.142;2023-06-14T01:13:03;5.40;;;3.97;;
12248;SDS011;6187;50.778;6.142;2023-06-14T01:15:33;3.93;;;3.60;;
12248;SDS011;6187;50.778;6.142;2023-06-14T01:18:05;4.20;;;3.80;;
12248;SDS011;6187;50.778;6.142;2023-06-14T01:20:33;4.60;;;4.20;;
12248;SDS011;6187;50.778;6.142;2023-06-14T01:23:06;5.50;;;4.13;;
12248;SDS011;6187;50.778;6.142;2023-06-14T01:25:34;4.63;;;4.10;;
12248;SDS011;6187;50.778;6.142;2023-06-14T01:28:05;4.43;;;4.03;;
12248;SDS011;6187;50.778;6.142;2023-06-14T01:30:37;5.47;;;4.10;;
12248;SDS011;6187;50.778;6.142;2023-06-14T01:33:09;4.53;;;4.13;;
12248;SDS011;6187;50.778;6.142;2023-06-14T01:35:37;4.00;;;3.60;;
12248;SDS011;6187;50.778;6.142;2023-06-14T01:38:07;4.53;;;4.13;;
12248;SDS011;6187;50.778;6.142;2023-06-14T01:40:36;4.47;;;4.07;;
12248;SDS011;6187;50.778;6.142;2023-06-14T01:43:06;5.47;;;4.70;;
12248;SDS011;6187;50.778;6.142;2023-06-14T01:45:35;4.50;;;4.10;;
12248;SDS011;6187;50.778;6.142;2023-06-14T01:48:04;4.60;;;4.20;;
12248;SDS011;6187;50.778;6.142;2023-06-14T01:50:33;4.33;;;3.93;;
12248;SDS011;6187;50.778;6.142;2023-06-14T01:53:02;4.13;;;3.73;;
12248;SDS011;6187;50.778;6.142;2023-06-14T01:55:32;6.33;;;4.50;;
12248;SDS011;6187;50.778;6.142;2023-06-14T01:58:04;4.60;;;4.20;;
12248;SDS011;6187;50.778;6.142;2023-06-14T02:00:32;4.23;;;3.83;;
12248;SDS011;6187;50.778;6.142;2023-06-14T02:03:01;4.57;;;4.17;;
12248;SDS011;6187;50.778;6.142;2023-06-14T02:05:30;4.33;;;3.93;;
12248;SDS011;6187;50.778;6.142;2023-06-14T02:08:01;5.60;;;4.63;;
12248;SDS011;6187;50.778;6.142;2023-06-14T02:10:29;5.30;;;4.73;;
12248;SDS011;6187;50.778;6.142;2023-06-14T02:12:59;4.93;;;4.53;;
12248;SDS011;6187;50.778;6.142;2023-06-14T02:15:28;4.30;;;3.90;;
12248;SDS011;6187;50.778;6.142;2023-06-14T02:18:00;5.10;;;4.43;;
12248;SDS011;6187;50.778;6.142;2023-06-14T02:20:30;6.57;;;4.80;;
12248;SDS011;6187;50.778;6.142;2023-06-14T02:22:58;4.90;;;4.13;;
12248;SDS011;6187;50.778;6.142;2023-06-14T02:25:27;4.43;;;4.03;;
12248;SDS011;6187;50.778;6.142;2023-06-14T02:27:56;5.50;;;5.00;;
12248;SDS011;6187;50.778;6.142;2023-06-14T02:30:26;4.70;;;4.30;;
12248;SDS011;6187;50.778;6.142;2023-06-14T02:32:54;5.13;;;4.63;;
12248;SDS011;6187;50.778;6.142;2023-06-14T02:35:23;4.83;;;4.43;;
12248;SDS011;6187;50.778;6.142;2023-06-14T02:37:53;4.40;;;4.00;;
12248;SDS011;6187;50.778;6.142;2023-06-14T02:40:22;4.93;;;4.10;;
12248;SDS011;6187;50.778;6.142;2023-06-14T02:42:51;5.07;;;4.57;;
12248;SDS011;6187;50.778;6.142;2023-06-14T02:45:19;5.10;;;4.60;;
12248;SDS011;6187;50.778;6.142;2023-06-14T02:47:50;5.20;;;4.20;;
12248;SDS011;6187;50.778;6.142;2023-06-14T02:50:19;4.37;;;4.03;;
12248;SDS011;6187;50.778;6.142;2023-06-14T02:52:50;5.07;;;4.57;;
12248;SDS011;6187;50.778;6.142;2023-06-14T02:55:22;4.97;;;4.47;;
12248;SDS011;6187;50.778;6.142;2023-06-14T02:57:50;5.00;;;4.60;;
12248;SDS011;6187;50.778;6.142;2023-06-14T03:00:20;5.13;;;4.63;;
12248;SDS011;6187;50.778;6.142;2023-06-14T03:02:51;5.33;;;4.80;;
12248;SDS011;6187;50.778;6.142;2023-06-14T03:05:21;4.97;;;4.57;;
12248;SDS011;6187;50.778;6.142;2023-06-14T03:07:50;5.03;;;4.53;;
12248;SDS011;6187;50.778;6.142;2023-06-14T03:10:20;5.57;;;5.00;;
12248;SDS011;6187;50.778;6.142;2023-06-14T03:12:49;5.97;;;5.37;;
12248;SDS011;6187;50.778;6.142;2023-06-14T03:15:18;5.33;;;4.83;;
12248;SDS011;6187;50.778;6.142;2023-06-14T03:17:51;4.90;;;4.50;;
12248;SDS011;6187;50.778;6.142;2023-06-14T03:20:20;5.37;;;4.70;;
12248;SDS011;6187;50.778;6.142;2023-06-14T03:22:50;5.20;;;4.70;;
12248;SDS011;6187;50.778;6.142;2023-06-14T03:25:19;6.43;;;5.47;;
12248;SDS011;6187;50.778;6.142;2023-06-14T03:27:48;5.70;;;4.67;;
12248;SDS011;6187;50.778;6.142;2023-06-14T03:30:17;6.37;;;4.90;;
12248;SDS011;6187;50.778;6.142;2023-06-14T03:32:45;5.37;;;4.97;;
12248;SDS011;6187;50.778;6.142;2023-06-14T03:35:15;5.63;;;5.10;;
12248;SDS011;6187;50.778;6.142;2023-06-14T03:37:44;5.60;;;5.07;;
12248;SDS011;6187;50.778;6.142;2023-06-14T03:40:14;5.97;;;5.00;;
12248;SDS011;6187;50.778;6.142;2023-06-14T03:42:43;5.57;;;4.97;;
12248;SDS011;6187;50.778;6.142;2023-06-14T03:45:12;6.27;;;5.67;;
12248;SDS011;6187;50.778;6.142;2023-06-14T03:47:41;5.20;;;4.70;;
12248;SDS011;6187;50.778;6.142;2023-06-14T03:50:10;5.70;;;5.07;;
12248;SDS011;6187;50.778;6.142;2023-06-14T03:52:40;6.60;;;4.97;;
12248;SDS011;6187;50.778;6.142;2023-06-14T03:55:10;6.40;;;5.80;;
12248;SDS011;6187;50.778;6.142;2023-06-14T03:57:42;5.80;;;5.20;;
12248;SDS011;6187;50.778;6.142;2023-06-14T04:00:11;5.70;;;5.10;;
12248;SDS011;6187;50.778;6.142;2023-06-14T04:02:40;5.30;;;4.80;;
12248;SDS011;6187;50.778;6.142;2023-06-14T04:05:10;5.60;;;4.90;;
12248;SDS011;6187;50.778;6.142;2023-06-14T04:07:41;5.57;;;4.97;;
12248;SDS011;6187;50.778;6.142;2023-06-14T04:10:12;6.80;;;5.80;;
12248;SDS011;6187;50.778;6.142;2023-06-14T04:12:40;6.17;;;4.90;;
12248;SDS011;6187;50.778;6.142;2023-06-14T04:15:10;5.37;;;4.77;;
12248;SDS011;6187;50.778;6.142;2023-06-14T04:17:47;5.67;;;5.03;;
12248;SDS011;6187;50.778;6.142;2023-06-14T04:20:16;4.97;;;4.57;;
12248;SDS011;6187;50.778;6.142;2023-06-14T04:22:46;5.57;;;5.07;;
12248;SDS011;6187;50.778;6.142;2023-06-14T04:25:15;4.70;;;4.30;;
12248;SDS011;6187;50.778;6.142;2023-06-14T04:27:49;5.70;;;5.20;;
12248;SDS011;6187;50.778;6.142;2023-06-14T04:30:18;5.23;;;4.80;;
12248;SDS011;6187;50.778;6.142;2023-06-14T04:32:47;5.73;;;5.13;;
12248;SDS011;6187;50.778;6.142;2023-06-14T04:35:20;4.90;;;4.50;;
12248;SDS011;6187;50.778;6.142;2023-06-14T04:37:51;4.80;;;4.40;;
12248;SDS011;6187;50.778;6.142;2023-06-14T04:40:21;5.10;;;4.60;;
12248;SDS011;6187;50.778;6.142;2023-06-14T04:42:50;5.30;;;4.80;;
12248;SDS011;6187;50.778;6.142;2023-06-14T04:45:19;5.20;;;4.67;;
12248;SDS011;6187;50.778;6.142;2023-06-14T04:47:48;5.97;;;5.37;;
12248;SDS011;6187;50.778;6.142;2023-06-14T04:50:17;6.30;;;4.80;;
12248;SDS011;6187;50.778;6.142;2023-06-14T04:52:47;5.43;;;4.77;;
12248;SDS011;6187;50.778;6.142;2023-06-14T04:55:19;6.00;;;4.80;;
12248;SDS011;6187;50.778;6.142;2023-06-14T04:57:47;5.60;;;5.00;;
12248;SDS011;6187;50.778;6.142;2023-06-14T05:00:19;5.73;;;4.93;;
12248;SDS011;6187;50.778;6.142;2023-06-14T05:02:49;6.90;;;4.87;;
12248;SDS011;6187;50.778;6.142;2023-06-14T05:05:20;5.97;;;4.90;;
12248;SDS011;6187;50.778;6.142;2023-06-14T05:07:48;4.60;;;4.20;;
12248;SDS011;6187;50.778;6.142;2023-06-14T05:10:18;5.13;;;4.60;;
12248;SDS011;6187;50.778;6.142;2023-06-14T05:12:47;6.23;;;4.90;;
12248;SDS011;6187;50.778;6.142;2023-06-14T05:15:16;5.03;;;4.30;;
12248;SDS011;6187;50.778;6.142;2023-06-14T05:17:45;5.77;;;4.40;;
12248;SDS011;6187;50.778;6.142;2023-06-14T05:20:19;4.83;;;4.40;;
12248;SDS011;6187;50.778;6.142;2023-06-14T05:22:49;6.23;;;4.20;;
12248;SDS011;6187;50.778;6.142;2023-06-14T05:25:20;5.23;;;4.30;;
12248;SDS011;6187;50.778;6.142;2023-06-14T05:27:49;4.87;;;4.47;;
12248;SDS011;6187;50.778;6.142;2023-06-14T05:30:18;4.97;;;4.40;;
12248;SDS011;6187;50.778;6.142;2023-06-14T05:32:46;5.03;;;4.43;;
12248;SDS011;6187;50.778;6.142;2023-06-14T05:35:15;7.40;;;4.33;;
12248;SDS011;6187;50.778;6.142;2023-06-14T05:37:44;4.70;;;4.30;;
12248;SDS011;6187;50.778;6.142;2023-06-14T05:40:14;4.40;;;4.00;;
12248;SDS011;6187;50.778;6.142;2023-06-14T05:42:45;4.30;;;3.80;;
12248;SDS011;6187;50.778;6.142;2023-06-14T05:45:13;5.77;;;3.90;;
12248;SDS011;6187;50.778;6.142;2023-06-14T05:47:43;4.27;;;3.60;;
12248;SDS011;6187;50.778;6.142;2023-06-14T05:50:11;4.03;;;3.43;;
12248;SDS011;6187;50.778;6.142;2023-06-14T05:52:40;3.83;;;3.47;;
12248;SDS011;6187;50.778;6.142;2023-06-14T05:55:08;4.07;;;3.67;;
12248;SDS011;6187;50.778;6.142;2023-06-14T05:57:39;4.13;;;3.67;;
12248;SDS011;6187;50.778;6.142;2023-06-14T06:00:10;3.93;;;3.63;;
12248;SDS011;6187;50.778;6.142;2023-06-14T06:02:41;4.13;;;3.73;;
12248;SDS011;6187;50.778;6.142;2023-06-14T06:05:10;3.80;;;3.43;;
12248;SDS011;6187;50.778;6.142;2023-06-14T06:07:39;3.80;;;3.50;;
12248;SDS011;6187;50.778;6.142;2023-06-14T06:10:08;4.23;;;3.63;;
12248;SDS011;6187;50.778;6.142;2023-06-14T06:12:37;4.17;;;3.63;;
12248;SDS011;6187;50.778;6.142;2023-06-14T06:15:06;3.90;;;3.50;;
12248;SDS011;6187;50.778;6.142;2023-06-14T06:17:40;4.17;;;3.80;;
12248;SDS011;6187;50.778;6.142;2023-06-14T06:20:21;4.13;;;3.50;;
12248;SDS011;6187;50.778;6.142;2023-06-14T06:22:55;4.40;;;3.40;;
12248;SDS011;6187;50.778;6.142;2023-06-14T06:25:24;3.70;;;3.33;;
12248;SDS011;6187;50.778;6.142;2023-06-14T06:27:53;3.80;;;3.47;;
12248;SDS011;6187;50.778;6.142;2023-06-14T06:30:22;3.93;;;3.53;;
12248;SDS011;6187;50.778;6.142;2023-06-14T06:32:52;3.70;;;3.33;;
12248;SDS011;6187;50.778;6.142;2023-06-14T06:35:22;3.87;;;3.50;;
12248;SDS011;6187;50.778;6.142;2023-06-14T06:37:50;3.23;;;2.77;;
12248;SDS011;6187;50.778;6.142;2023-06-14T06:40:19;4.00;;;2.90;;
12248;SDS011;6187;50.778;6.142;2023-06-14T06:42:48;3.23;;;3.00;;
12248;SDS011;6187;50.778;6.142;2023-06-14T06:45:17;4.27;;;3.30;;
12248;SDS011;6187;50.778;6.142;2023-06-14T06:47:46;3.30;;;2.83;;
12248;SDS011;6187;50.778;6.142;2023-06-14T06:50:17;3.77;;;2.80;;
12248;SDS011;6187;50.778;6.142;2023-06-14T06:52:46;4.30;;;3.07;;
12248;SDS011;6187;50.778;6.142;2023-06-14T06:55:15;2.80;;;2.60;;
12248;SDS011;6187;50.778;6.142;2023-06-14T06:57:45;4.53;;;3.20;;
12248;SDS011;6187;50.778;6.142;2023-06-14T07:00:14;3.00;;;2.80;;
12248;SDS011;6187;50.778;6.142;2023-06-14T07:02:43;3.20;;;2.83;;
12248;SDS011;6187;50.778;6.142;2023-06-14T07:05:12;3.57;;;3.20;;
12248;SDS011;6187;50.778;6.142;2023-06-14T07:07:42;3.30;;;3.00;;
12248;SDS011;6187;50.778;6.142;2023-06-14T07:10:11;3.37;;;3.07;;
12248;SDS011;6187;50.778;6.142;2023-06-14T07:12:40;3.20;;;2.90;;
12248;SDS011;6187;50.778;6.142;2023-06-14T07:15:09;3.37;;;2.50;;
12248;SDS011;6187;50.778;6.142;2023-06-14T07:17:38;3.20;;;2.90;;
12248;SDS011;6187;50.778;6.142;2023-06-14T07:20:07;3.03;;;2.73;;
12248;SDS011;6187;50.778;6.142;2023-06-14T07:22:39;2.80;;;2.60;;
12248;SDS011;6187;50.778;6.142;2023-06-14T07:25:10;3.93;;;2.90;;
12248;SDS011;6187;50.778;6.142;2023-06-14T07:27:41;2.87;;;2.63;;
12248;SDS011;6187;50.778;6.142;2023-06-14T07:30:10;4.53;;;2.83;;
12248;SDS011;6187;50.778;6.142;2023-06-14T07:32:38;2.97;;;2.50;;
12248;SDS011;6187;50.778;6.142;2023-06-14T07:35:07;2.80;;;2.50;;
12248;SDS011;6187;50.778;6.142;2023-06-14T07:37:36;4.17;;;2.77;;
12248;SDS011;6187;50.778;6.142;2023-06-14T07:40:05;3.10;;;2.73;;
12248;SDS011;6187;50.778;6.142;2023-06-14T07:42:36;2.87;;;2.67;;
12248;SDS011;6187;50.778;6.142;2023-06-14T07:45:05;4.47;;;2.57;;
12248;SDS011;6187;50.778;6.142;2023-06-14T07:47:33;4.23;;;2.80;;
12248;SDS011;6187;50.778;6.142;2023-06-14T07:50:02;3.37;;;2.87;;
12248;SDS011;6187;50.778;6.142;2023-06-14T07:52:31;3.13;;;2.83;;
12248;SDS011;6187;50.778;6.142;2023-06-14T07:55:00;2.80;;;2.57;;
12248;SDS011;6187;50.778;6.142;2023-06-14T07:57:28;2.77;;;2.50;;
12248;SDS011;6187;50.778;6.142;2023-06-14T07:59:58;2.60;;;2.40;;
12248;SDS011;6187;50.778;6.142;2023-06-14T08:02:27;3.37;;;2.37;;
12248;SDS011;6187;50.778;6.142;2023-06-14T08:04:56;2.57;;;2.37;;
12248;SDS011;6187;50.778;6.142;2023-06-14T08:07:25;2.10;;;1.90;;
12248;SDS011;6187;50.778;6.142;2023-06-14T08:09:53;3.03;;;2.50;;
12248;SDS011;6187;50.778;6.142;2023-06-14T08:12:22;2.37;;;2.17;;
12248;SDS011;6187;50.778;6.142;2023-06-14T08:14:50;2.40;;;2.20;;
12248;SDS011;6187;50.778;6.142;2023-06-14T08:17:41;2.30;;;2.10;;
12248;SDS011;6187;50.778;6.142;2023-06-14T08:20:10;2.40;;;2.20;;
12248;SDS011;6187;50.778;6.142;2023-06-14T08:22:40;3.03;;;2.10;;
12248;SDS011;6187;50.778;6.142;2023-06-14T08:25:09;2.83;;;2.33;;
12248;SDS011;6187;50.778;6.142;2023-06-14T08:27:38;5.10;;;2.10;;
12248;SDS011;6187;50.778;6.142;2023-06-14T08:30:08;2.37;;;2.17;;
12248;SDS011;6187;50.778;6.142;2023-06-14T08:32:37;2.40;;;1.83;;
12248;SDS011;6187;50.778;6.142;2023-06-14T08:35:07;1.80;;;1.60;;
12248;SDS011;6187;50.778;6.142;2023-06-14T08:37:37;2.20;;;2.00;;
12248;SDS011;6187;50.778;6.142;2023-06-14T08:40:08;4.30;;;2.30;;
12248;SDS011;6187;50.778;6.142;2023-06-14T08:42:41;2.25;;;2.05;;
12248;SDS011;6187;50.778;6.142;2023-06-14T08:45:10;2.10;;;1.90;;
12248;SDS011;6187;50.778;6.142;2023-06-14T08:47:39;2.60;;;2.10;;
12248;SDS011;6187;50.778;6.142;2023-06-14T08:50:10;2.60;;;2.10;;
12248;SDS011;6187;50.778;6.142;2023-06-14T08:52:41;2.78;;;1.88;;
12248;SDS011;6187;50.778;6.142;2023-06-14T08:55:17;2.80;;;1.90;;
12248;SDS011;6187;50.778;6.142;2023-06-14T08:57:46;2.22;;;1.80;;
12248;SDS011;6187;50.778;6.142;2023-06-14T09:00:15;3.85;;;2.33;;
12248;SDS011;6187;50.778;6.142;2023-06-14T09:02:44;1.92;;;1.75;;
12248;SDS011;6187;50.778;6.142;2023-06-14T09:05:14;1.77;;;1.37;;
12248;SDS011;6187;50.778;6.142;2023-06-14T09:07:44;2.08;;;1.60;;
12248;SDS011;6187;50.778;6.142;2023-06-14T09:10:15;1.83;;;1.70;;
12248;SDS011;6187;50.778;6.142;2023-06-14T09:12:44;3.28;;;1.90;;
12248;SDS011;6187;50.778;6.142;2023-06-14T09:15:13;2.17;;;1.70;;
12248;SDS011;6187;50.778;6.142;2023-06-14T09:17:43;2.10;;;1.80;;
12248;SDS011;6187;50.778;6.142;2023-06-14T09:20:12;3.42;;;1.85;;
12248;SDS011;6187;50.778;6.142;2023-06-14T09:22:46;1.98;;;1.77;;
12248;SDS011;6187;50.778;6.142;2023-06-14T09:25:14;2.83;;;1.60;;
12248;SDS011;6187;50.778;6.142;2023-06-14T09:28:05;1.70;;;1.50;;
12248;SDS011;6187;50.778;6.142;2023-06-14T09:30:35;2.75;;;1.77;;
12248;SDS011;6187;50.778;6.142;2023-06-14T09:33:04;2.08;;;1.88;;
12248;SDS011;6187;50.778;6.142;2023-06-14T09:35:32;2.03;;;1.60;;
12248;SDS011;6187;50.778;6.142;2023-06-14T09:38:02;2.63;;;1.90;;
12248;SDS011;6187;50.778;6.142;2023-06-14T09:40:33;1.80;;;1.70;;
12248;SDS011;6187;50.778;6.142;2023-06-14T09:43:04;2.42;;;1.80;;
12248;SDS011;6187;50.778;6.142;2023-06-14T09:45:35;2.20;;;1.95;;
12248;SDS011;6187;50.778;6.142;2023-06-14T09:48:06;2.83;;;1.88;;
12248;SDS011;6187;50.778;6.142;2023-06-14T09:50:35;2.50;;;1.85;;
12248;SDS011;6187;50.778;6.142;2023-06-14T09:53:07;2.90;;;2.00;;
12248;SDS011;6187;50.778;6.142;2023-06-14T09:55:36;3.13;;;1.90;;
12248;SDS011;6187;50.778;6.142;2023-06-14T09:58:06;2.17;;;1.98;;
12248;SDS011;6187;50.778;6.142;2023-06-14T10:00:35;2.10;;;1.70;;
12248;SDS011;6187;50.778;6.142;2023-06-14T10:03:06;2.10;;;1.90;;
12248;SDS011;6187;50.778;6.142;2023-06-14T10:05:39;1.88;;;1.63;;
12248;SDS011;6187;50.778;6.142;2023-06-14T10:08:10;2.13;;;1.70;;
12248;SDS011;6187;50.778;6.142;2023-06-14T10:10:39;1.80;;;1.70;;
12248;SDS011;6187;50.778;6.142;2023-06-14T10:13:07;3.88;;;1.77;;
12248;SDS011;6187;50.778;6.142;2023-06-14T10:15:38;2.35;;;1.75;;
12248;SDS011;6187;50.778;6.142;2023-06-14T10:18:11;2.00;;;1.60;;
12248;SDS011;6187;50.778;6.142;2023-06-14T10:20:49;2.08;;;1.67;;
12248;SDS011;6187;50.778;6.142;2023-06-14T10:23:21;1.60;;;1.50;;
12248;SDS011;6187;50.778;6.142;2023-06-14T10:25:54;2.63;;;1.58;;
12248;SDS011;6187;50.778;6.142;2023-06-14T10:28:23;1.92;;;1.83;;
12248;SDS011;6187;50.778;6.142;2023-06-14T10:31:02;3.05;;;1.42;;
12248;SDS011;6187;50.778;6.142;2023-06-14T10:33:31;2.70;;;1.60;;
12248;SDS011;6187;50.778;6.142;2023-06-14T10:38:58;1.65;;;1.45;;
12248;SDS011;6187;50.778;6.142;2023-06-14T10:41:28;1.92;;;1.60;;
12248;SDS011;6187;50.778;6.142;2023-06-14T10:46:45;1.20;;;1.10;;
12248;SDS011;6187;50.778;6.142;2023-06-14T10:49:15;1.40;;;1.30;;
12248;SDS011;6187;50.778;6.142;2023-06-14T10:51:45;2.78;;;1.30;;
12248;SDS011;6187;50.778;6.142;2023-06-14T10:54:15;1.60;;;1.50;;
12248;SDS011;6187;50.778;6.142;2023-06-14T10:56:45;1.13;;;1.02;;
12248;SDS011;6187;50.778;6.142;2023-06-14T10:59:15;1.88;;;1.30;;
12248;SDS011;6187;50.778;6.142;2023-06-14T11:01:46;1.70;;;1.20;;
12248;SDS011;6187;50.778;6.142;2023-06-14T11:04:21;1.40;;;1.17;;
12248;SDS011;6187;50.778;6.142;2023-06-14T11:06:51;1.48;;;1.27;;
12248;SDS011;6187;50.778;6.142;2023-06-14T11:09:35;1.63;;;1.15;;
12248;SDS011;6187;50.778;6.142;2023-06-14T11:12:10;1.42;;;1.20;;
12248;SDS011;6187;50.778;6.142;2023-06-14T11:14:39;1.50;;;1.40;;
12248;SDS011;6187;50.778;6.142;2023-06-14T11:17:07;2.50;;;1.65;;
12248;SDS011;6187;50.778;6.142;2023-06-14T11:19:36;1.38;;;1.27;;
12248;SDS011;6187;50.778;6.142;2023-06-14T11:22:04;1.13;;;1.10;;
12248;SDS011;6187;50.778;6.142;2023-06-14T11:24:35;1.30;;;1.20;;
12248;SDS011;6187;50.778;6.142;2023-06-14T11:27:04;1.17;;;1.10;;
12248;SDS011;6187;50.778;6.142;2023-06-14T11:29:33;1.30;;;1.20;;
12248;SDS011;6187;50.778;6.142;2023-06-14T11:32:01;1.60;;;1.25;;
12248;SDS011;6187;50.778;6.142;2023-06-14T11:34:30;1.40;;;1.20;;
12248;SDS011;6187;50.778;6.142;2023-06-14T11:36:59;1.33;;;1.23;;
12248;SDS011;6187;50.778;6.142;2023-06-14T11:39:27;2.17;;;1.60;;
12248;SDS011;6187;50.778;6.142;2023-06-14T11:41:57;1.40;;;1.30;;
12248;SDS011;6187;50.778;6.142;2023-06-14T11:44:27;1.73;;;1.55;;
12248;SDS011;6187;50.778;6.142;2023-06-14T11:46:57;1.50;;;1.40;;
12248;SDS011;6187;50.778;6.142;2023-06-14T11:49:25;2.03;;;1.20;;
12248;SDS011;6187;50.778;6.142;2023-06-14T11:51:54;1.50;;;1.30;;
12248;SDS011;6187;50.778;6.142;2023-06-14T11:54:23;1.40;;;1.25;;
12248;SDS011;6187;50.778;6.142;2023-06-14T11:56:52;1.30;;;1.20;;
12248;SDS011;6187;50.778;6.142;2023-06-14T11:59:22;1.95;;;1.20;;
12248;SDS011;6187;50.778;6.142;2023-06-14T12:01:52;1.95;;;1.50;;
12248;SDS011;6187;50.778;6.142;2023-06-14T12:04:24;1.65;;;1.50;;
12248;SDS011;6187;50.778;6.142;2023-06-14T12:06:54;2.38;;;1.38;;
12248;SDS011;6187;50.778;6.142;2023-06-14T12:09:24;1.77;;;1.13;;
12248;SDS011;6187;50.778;6.142;2023-06-14T12:11:59;1.30;;;1.20;;
12248;SDS011;6187;50.778;6.142;2023-06-14T12:14:31;1.50;;;1.40;;
12248;SDS011;6187;50.778;6.142;2023-06-14T12:17:03;2.00;;;1.20;;
12248;SDS011;6187;50.778;6.142;2023-06-14T12:19:33;2.58;;;1.50;;
12248;SDS011;6187;50.778;6.142;2023-06-14T12:22:09;1.95;;;1.48;;
12248;SDS011;6187;50.778;6.142;2023-06-14T12:24:38;1.50;;;1.40;;
12248;SDS011;6187;50.778;6.142;2023-06-14T12:27:07;2.08;;;1.25;;
12248;SDS011;6187;50.778;6.142;2023-06-14T12:29:39;1.60;;;1.20;;
12248;SDS011;6187;50.778;6.142;2023-06-14T12:32:10;1.25;;;1.15;;
12248;SDS011;6187;50.778;6.142;2023-06-14T12:34:39;1.65;;;1.33;;
12248;SDS011;6187;50.778;6.142;2023-06-14T12:37:08;1.20;;;1.10;;
12248;SDS011;6187;50.778;6.142;2023-06-14T12:39:37;1.83;;;1.52;;
12248;SDS011;6187;50.778;6.142;2023-06-14T12:42:06;1.83;;;1.10;;
12248;SDS011;6187;50.778;6.142;2023-06-14T12:44:35;1.38;;;1.25;;
12248;SDS011;6187;50.778;6.142;2023-06-14T12:47:08;1.38;;;1.10;;
12248;SDS011;6187;50.778;6.142;2023-06-14T12:49:37;1.52;;;1.30;;
12248;SDS011;6187;50.778;6.142;2023-06-14T12:52:07;1.52;;;1.30;;
12248;SDS011;6187;50.778;6.142;2023-06-14T12:54:35;1.30;;;1.20;;
12248;SDS011;6187;50.778;6.142;2023-06-14T12:57:07;1.17;;;1.08;;
12248;SDS011;6187;50.778;6.142;2023-06-14T12:59:36;1.67;;;1.27;;
12248;SDS011;6187;50.778;6.142;2023-06-14T13:02:13;1.40;;;1.00;;
12248;SDS011;6187;50.778;6.142;2023-06-14T13:04:42;1.67;;;1.25;;
12248;SDS011;6187;50.778;6.142;2023-06-14T13:07:11;1.55;;;1.40;;
12248;SDS011;6187;50.778;6.142;2023-06-14T13:09:41;1.73;;;1.40;;
12248;SDS011;6187;50.778;6.142;2023-06-14T13:12:10;2.63;;;1.40;;
12248;SDS011;6187;50.778;6.142;2023-06-14T13:14:39;2.00;;;1.20;;
12248;SDS011;6187;50.778;6.142;2023-06-14T13:17:08;2.45;;;1.55;;
12248;SDS011;6187;50.778;6.142;2023-06-14T13:19:38;2.08;;;1.40;;
12248;SDS011;6187;50.778;6.142;2023-06-14T13:22:08;1.52;;;1.20;;
12248;SDS011;6187;50.778;6.142;2023-06-14T13:24:37;1.30;;;1.17;;
12248;SDS011;6187;50.778;6.142;2023-06-14T13:27:06;2.30;;;1.35;;
12248;SDS011;6187;50.778;6.142;2023-06-14T13:29:34;1.50;;;1.40;;
12248;SDS011;6187;50.778;6.142;2023-06-14T13:32:03;1.38;;;1.15;;
12248;SDS011;6187;50.778;6.142;2023-06-14T13:34:32;1.42;;;1.20;;
12248;SDS011;6187;50.778;6.142;2023-06-14T13:37:02;1.35;;;1.25;;
12248;SDS011;6187;50.778;6.142;2023-06-14T13:39:31;1.20;;;1.10;;
12248;SDS011;6187;50.778;6.142;2023-06-14T13:41:59;2.33;;;1.40;;
12248;SDS011;6187;50.778;6.142;2023-06-14T13:44:28;1.50;;;1.40;;
12248;SDS011;6187;50.778;6.142;2023-06-14T13:46:56;1.90;;;1.50;;
12248;SDS011;6187;50.778;6.142;2023-06-14T13:49:25;1.88;;;1.23;;
12248;SDS011;6187;50.778;6.142;2023-06-14T13:51:54;1.52;;;1.33;;
12248;SDS011;6187;50.778;6.142;2023-06-14T13:54:24;1.42;;;1.20;;
12248;SDS011;6187;50.778;6.142;2023-06-14T13:56:52;1.40;;;1.30;;
12248;SDS011;6187;50.778;6.142;2023-06-14T13:59:21;1.35;;;1.23;;
12248;SDS011;6187;50.778;6.142;2023-06-14T14:01:50;1.33;;;1.17;;
12248;SDS011;6187;50.778;6.142;2023-06-14T14:04:19;1.65;;;1.30;;
12248;SDS011;6187;50.778;6.142;2023-06-14T14:06:48;2.42;;;1.48;;
12248;SDS011;6187;50.778;6.142;2023-06-14T14:09:16;1.48;;;1.30;;
12248;SDS011;6187;50.778;6.142;2023-06-14T14:11:47;1.40;;;1.30;;
12248;SDS011;6187;50.778;6.142;2023-06-14T14:14:15;1.75;;;1.40;;
12248;SDS011;6187;50.778;6.142;2023-06-14T14:16:44;1.42;;;1.33;;
12248;SDS011;6187;50.778;6.142;2023-06-14T14:19:13;1.63;;;1.52;;
12248;SDS011;6187;50.778;6.142;2023-06-14T14:21:41;1.80;;;1.35;;
12248;SDS011;6187;50.778;6.142;2023-06-14T14:24:10;1.70;;;1.60;;
12248;SDS011;6187;50.778;6.142;2023-06-14T14:26:38;1.75;;;1.48;;
12248;SDS011;6187;50.778;6.142;2023-06-14T14:29:08;1.85;;;1.40;;
12248;SDS011;6187;50.778;6.142;2023-06-14T14:31:38;2.45;;;1.60;;
12248;SDS011;6187;50.778;6.142;2023-06-14T14:34:07;1.30;;;1.20;;
12248;SDS011;6187;50.778;6.142;2023-06-14T14:36:35;2.40;;;1.55;;
12248;SDS011;6187;50.778;6.142;2023-06-14T14:39:08;1.98;;;1.42;;
12248;SDS011;6187;50.778;6.142;2023-06-14T14:41:37;1.70;;;1.60;;
12248;SDS011;6187;50.778;6.142;2023-06-14T14:44:09;1.60;;;1.50;;
12248;SDS011;6187;50.778;6.142;2023-06-14T14:46:38;1.52;;;1.42;;
12248;SDS011;6187;50.778;6.142;2023-06-14T14:49:07;1.70;;;1.27;;
12248;SDS011;6187;50.778;6.142;2023-06-14T14:51:36;1.40;;;1.30;;
12248;SDS011;6187;50.778;6.142;2023-06-14T14:54:05;1.98;;;1.60;;
12248;SDS011;6187;50.778;6.142;2023-06-14T14:56:33;1.70;;;1.60;;
12248;SDS011;6187;50.778;6.142;2023-06-14T14:59:04;2.17;;;1.42;;
12248;SDS011;6187;50.778;6.142;2023-06-14T15:01:34;1.60;;;1.50;;
12248;SDS011;6187;50.778;6.142;2023-06-14T15:04:03;1.67;;;1.40;;
12248;SDS011;6187;50.778;6.142;2023-06-14T15:06:31;1.95;;;1.40;;
12248;SDS011;6187;50.778;6.142;2023-06-14T15:09:05;1.52;;;1.40;;
12248;SDS011;6187;50.778;6.142;2023-06-14T15:11:34;1.45;;;1.35;;
12248;SDS011;6187;50.778;6.142;2023-06-14T15:14:02;1.55;;;1.30;;
12248;SDS011;6187;50.778;6.142;2023-06-14T15:16:31;1.40;;;1.30;;
12248;SDS011;6187;50.778;6.142;2023-06-14T15:19:01;1.45;;;1.30;;
12248;SDS011;6187;50.778;6.142;2023-06-14T15:21:29;1.67;;;1.40;;
12248;SDS011;6187;50.778;6.142;2023-06-14T15:24:00;1.70;;;1.38;;